Callaway, Minnesota
Current Conditions -  °F | °C
As of 7:35 AM on Wednesday 22 Oct 2014 (Local Time) from KDTL Reporting Station
Clear Clear  
Wind Chill: 42°   Ceiling: Unl
Heat Index: 48°   Visibility: 10mi
Dew Point: 41°   Wind: 15mph
Humidity: 76%   Direction: 160°SSE
Pressure: 29.95"   Gusts: 23mph
Location:  46.98°N, 95.91°W
Report Text: KDTL 221235Z AUTO 16013G20KT 10SM CLR 09/05 A2995 RMK AO2
Loading
Personal Weather Stations






























Interactive Weather Map
Tropical Storm Tracking
New forecast layout! Learn more

10-Day Weather Forecast

Advertisements
Track Severe Weather on mobile